Moville, IA (51039)

2:04 PM CDT on July 22, 2014 (GMT -0500)
SSW Union (KIAKINGS2) Elev 1368 ft | 42.66 °N, 96.06 °W | Change Station

Current weather conditions updated 3 minutes ago

Mostly Cloudy
Mostly Cloudy
79.4 °F
Feels Like 82 °F
N
8.0
Wind Variable Wind from NE
Gusts 14.0 mph

Today is forecast to be Cooler than yesterday.

Today
High -- | Low -- °F
--% Chance of Precip.
Yesterday
High -- | Low -- °F
Precip. -- in
6:06 AM 8:54 PM
Waning Crescent, 15% visible
Pressure 30.05 in
Visibility 10.0 miles
Clouds Clear
Heat Index 82 °F
Dew Point 68 °F
Humidity 68%
Rainfall 0.00 in
Snow Depth Not available.
UV 11 out of 12
Pollen 6.00 out of 12
Air Quality Not available.
Flu Activity Sporadic
METAR KSUX 221852Z 01009KT 10SM CLR 29/20 A3008 RMK AO2 SLP175 T02940200

More Conditions Fewer Conditions

Pressure 30.05 in
Visibility 10.0 miles
Clouds Clear
Heat Index 82 °F
Dew Point 68 °F
Humidity 68%
Rainfall 0.00 in
Snow Depth Not available.
UV 11 out of 12
Pollen 6.00 out of 12
Air Quality Not available.
Flu Activity Sporadic
METAR KSUX 221852Z 01009KT 10SM CLR 29/20 A3008 RMK AO2 SLP175 T02940200

More Conditions Fewer Conditions

10-Day Weather Forecast

Almanac

Astronomy

Jul. 22, 2014 Rise Set
Actual Time 6:06 AM CDT 8:54 PM CDT
Civil Twilight 5:33 AM CDT 9:27 PM CDT
Nautical Twilight 4:52 AM CDT 10:08 PM CDT
Astronomical Twilight 4:03 AM CDT 10:56 PM CDT
Moon 2:41 AM CDT 5:32 PM CDT
Length of Visible Light 15h 53m
Length of Day
14h 47m
Tomorrow will be 1m 50s shorter.
Waning Crescent, 15% of the Moon is Illuminated
Today
Waning Crescent
Jul 26
New
Aug 3
First Quarter
Aug 10
Full
Aug 17
Last Quarter

Today's Extremes

State Highs State Lows

Community

WunderPhotos

Upload Photos

1,736,333 photos uploaded!

Nearby

Snow Depth

Station Depth Elevation
No new snow has been reported.

Earthquake Activity

City Distance Mag. Time & Date
No recent earthquake activity has been reported nearby.
Minimum magnitude displayed is 2.5.

Coastal Water Temperatures

Place Temperature
No Stations Reporting

Nearby Weather Stations

Station Location Temp. Heat Index Dew Point Humidity Wind Precip. Elev Updated Type
SSW Union, Kingsley, IA 79.4 °F 82 °F 68 °F 68% NE  at  8.0 mph 0.00 in / hr 1368 ft 2:00 PM CDT Normal
South of LeMars, LeMars, IA 84.7 °F 89 °F 69 °F 60% North  at  4.3 mph - / hr 1250 ft 1:58 PM CDT Normal
MesoWest SALIX , Salix, IA 77 °F 75 °F - - North  at  - 0.00 in / hr 1077 ft 10:55 AM CDT MADIS
Northside Jones House, Sioux City, IA 86.0 °F 91 °F 70 °F 59% NNE  at  0.0 mph 0.00 in / hr 1253 ft 1:59 PM CDT Normal
HADS WEST FORK DITCH AT HORNICK IA, Rodney, IA 82 °F 80 °F - - North  at  - 0.00 in / hr 1045 ft 1:00 PM CDT MADIS
Down Town, LeMars, IA 88.0 °F 87 °F 59 °F 38% North  at  3.0 mph 0.00 in / hr 1220 ft 1:55 PM CDT Normal
McCook Lake SD, McCook Lake, SD 83.3 °F 86 °F 68 °F 60% North  at  2.0 mph 0.00 in / hr 1114 ft 2:03 PM CDT Rapid Fire

Show More Stations Show Fewer Stations